PWSweather.com
Personal Weather Stations
Station Observations
KOHAVON11
Long Road Station, Avon, OH 44011

Long Road StationAvon, OH 44011

Lat: 41.437, Lon: -82.0477

Elevation: 686

Station Type: Davis Vantage Pro2

http://www.avon-weather.com

High Low Average
Temperature 49.7°F9.8°C 35.6°F2.0°C 40.5°F4.7°C
Dew Point 46.6°F8.1°C 32.2°F0.1°C 37.0°F2.8°C
Winds 9.0 mph 14.5 kmh Calm Calm 1.0 mph ESE1.6 kmh ESE
Wind Gusts 11.0 mph17.7 kmh -- 4.0 mph6.4 kmh
Humidity 90% 82% 87%
Pressure 30.15 in1021.0 mb 29.52 in999.7 mb -
Precipitation 0.40 in10.2 mm - -
Hour Temp Dew Point Humidity Winds Wind Gusts Pressure Precip Precip Rate Daily Precip Total
12:04 AM 35.5°F1.9°C 32.3°F0.2°C 88% Calm Calm -- 30.14 in1020.7 mb 0.00 in0.0 mm 0.00 in0.0 mm 0.00 in0.0 mm
12:09 AM 35.5°F1.9°C 32.3°F0.2°C 88% Calm Calm -- 30.14 in1020.7 mb 0.00 in0.0 mm 0.00 in0.0 mm 0.00 in0.0 mm
12:14 AM 35.5°F1.9°C 32.3°F0.2°C 88% Calm Calm -- 30.14 in1020.7 mb 0.00 in0.0 mm 0.00 in0.0 mm 0.00 in0.0 mm
12:19 AM 35.5°F1.9°C 32.3°F0.2°C 88% Calm Calm -- 30.14 in1020.7 mb 0.00 in0.0 mm 0.00 in0.0 mm 0.00 in0.0 mm
12:24 AM 35.5°F1.9°C 32.3°F0.2°C 88% Calm Calm -- 30.14 in1020.7 mb 0.00 in0.0 mm 0.00 in0.0 mm 0.00 in0.0 mm
12:29 AM 35.5°F1.9°C 32.3°F0.2°C 88% Calm Calm -- 30.14 in1020.7 mb 0.00 in0.0 mm 0.00 in0.0 mm 0.00 in0.0 mm
12:34 AM 35.5°F1.9°C 32.3°F0.2°C 88% Calm Calm -- 30.13 in1020.3 mb 0.00 in0.0 mm 0.00 in0.0 mm 0.00 in0.0 mm
12:39 AM 35.5°F1.9°C 32.3°F0.2°C 88% Calm Calm -- 30.13 in1020.3 mb 0.00 in0.0 mm 0.00 in0.0 mm 0.00 in0.0 mm
12:44 AM 35.6°F2.0°C 32.4°F0.2°C 88% Calm Calm -- 30.13 in1020.3 mb 0.00 in0.0 mm 0.00 in0.0 mm 0.00 in0.0 mm
12:49 AM 35.5°F1.9°C 32.3°F0.2°C 88% Calm Calm -- 30.13 in1020.3 mb 0.00 in0.0 mm 0.00 in0.0 mm 0.00 in0.0 mm
12:54 AM 35.6°F2.0°C 32.4°F0.2°C 88% Calm Calm -- 30.13 in1020.3 mb 0.00 in0.0 mm 0.00 in0.0 mm 0.00 in0.0 mm
12:59 AM 35.6°F2.0°C 32.4°F0.2°C 88% Calm Calm -- 30.13 in1020.3 mb 0.00 in0.0 mm 0.00 in0.0 mm 0.00 in0.0 mm
01:04 AM 35.6°F2.0°C 32.4°F0.2°C 88% Calm Calm -- 30.13 in1020.3 mb 0.00 in0.0 mm 0.00 in0.0 mm 0.00 in0.0 mm
01:09 AM 35.6°F2.0°C 32.4°F0.2°C 88% Calm Calm -- 30.12 in1020.0 mb 0.00 in0.0 mm 0.00 in0.0 mm 0.00 in0.0 mm
01:14 AM 35.6°F2.0°C 32.4°F0.2°C 88% Calm Calm -- 30.12 in1020.0 mb 0.00 in0.0 mm 0.00 in0.0 mm 0.00 in0.0 mm
01:19 AM 35.6°F2.0°C 32.4°F0.2°C 88% Calm Calm -- 30.12 in1020.0 mb 0.00 in0.0 mm 0.00 in0.0 mm 0.00 in0.0 mm
01:24 AM 35.7°F2.1°C 32.5°F0.3°C 88% Calm Calm -- 30.12 in1020.0 mb 0.00 in0.0 mm 0.00 in0.0 mm 0.00 in0.0 mm
01:29 AM 35.7°F2.1°C 32.5°F0.3°C 88% Calm Calm -- 30.12 in1020.0 mb 0.00 in0.0 mm 0.00 in0.0 mm 0.00 in0.0 mm
01:34 AM 35.7°F2.1°C 32.5°F0.3°C 88% Calm Calm -- 30.12 in1020.0 mb 0.00 in0.0 mm 0.00 in0.0 mm 0.00 in0.0 mm
01:39 AM 35.7°F2.1°C 32.5°F0.3°C 88% Calm Calm -- 30.13 in1020.3 mb 0.00 in0.0 mm 0.00 in0.0 mm 0.00 in0.0 mm
01:44 AM 35.8°F2.1°C 32.6°F0.3°C 88% Calm Calm -- 30.13 in1020.3 mb 0.00 in0.0 mm 0.00 in0.0 mm 0.00 in0.0 mm
01:49 AM 35.8°F2.1°C 32.6°F0.3°C 88% Calm Calm -- 30.13 in1020.3 mb 0.00 in0.0 mm 0.00 in0.0 mm 0.00 in0.0 mm
01:54 AM 35.8°F2.1°C 32.6°F0.3°C 88% Calm Calm -- 30.14 in1020.7 mb 0.00 in0.0 mm 0.00 in0.0 mm 0.00 in0.0 mm
01:59 AM 35.8°F2.1°C 32.6°F0.3°C 88% Calm Calm -- 30.14 in1020.7 mb 0.00 in0.0 mm 0.00 in0.0 mm 0.00 in0.0 mm
02:04 AM 35.9°F2.2°C 32.7°F0.4°C 88% Calm Calm -- 30.14 in1020.7 mb 0.00 in0.0 mm 0.00 in0.0 mm 0.00 in0.0 mm
02:09 AM 35.9°F2.2°C 32.7°F0.4°C 88% Calm Calm -- 30.14 in1020.7 mb 0.00 in0.0 mm 0.00 in0.0 mm 0.00 in0.0 mm
02:14 AM 35.9°F2.2°C 32.7°F0.4°C 88% Calm Calm -- 30.14 in1020.7 mb 0.00 in0.0 mm 0.00 in0.0 mm 0.00 in0.0 mm
02:19 AM 35.9°F2.2°C 32.7°F0.4°C 88% Calm Calm -- 30.15 in1021.0 mb 0.00 in0.0 mm 0.00 in0.0 mm 0.00 in0.0 mm
02:24 AM 36.0°F2.2°C 32.8°F0.4°C 88% Calm Calm -- 30.15 in1021.0 mb 0.00 in0.0 mm 0.00 in0.0 mm 0.00 in0.0 mm
02:29 AM 36.0°F2.2°C 32.8°F0.4°C 88% Calm Calm -- 30.14 in1020.7 mb 0.00 in0.0 mm 0.00 in0.0 mm 0.00 in0.0 mm
02:34 AM 36.0°F2.2°C 32.8°F0.4°C 88% Calm Calm -- 30.14 in1020.7 mb 0.00 in0.0 mm 0.00 in0.0 mm 0.00 in0.0 mm
02:39 AM 36.0°F2.2°C 32.8°F0.4°C 88% Calm Calm -- 30.13 in1020.3 mb 0.00 in0.0 mm 0.00 in0.0 mm 0.00 in0.0 mm
02:44 AM 36.1°F2.3°C 32.9°F0.5°C 88% Calm Calm -- 30.13 in1020.3 mb 0.00 in0.0 mm 0.00 in0.0 mm 0.00 in0.0 mm
02:49 AM 36.1°F2.3°C 32.9°F0.5°C 88% Calm Calm -- 30.12 in1020.0 mb 0.00 in0.0 mm 0.00 in0.0 mm 0.00 in0.0 mm
02:54 AM 36.1°F2.3°C 32.9°F0.5°C 88% Calm Calm -- 30.12 in1020.0 mb 0.00 in0.0 mm 0.00 in0.0 mm 0.00 in0.0 mm
02:59 AM 36.1°F2.3°C 32.9°F0.5°C 88% Calm Calm -- 30.12 in1020.0 mb 0.00 in0.0 mm 0.00 in0.0 mm 0.00 in0.0 mm
03:04 AM 36.1°F2.3°C 32.9°F0.5°C 88% Calm Calm -- 30.12 in1020.0 mb 0.00 in0.0 mm 0.00 in0.0 mm 0.00 in0.0 mm
03:09 AM 36.1°F2.3°C 32.9°F0.5°C 88% Calm Calm -- 30.13 in1020.3 mb 0.00 in0.0 mm 0.00 in0.0 mm 0.00 in0.0 mm
03:14 AM 36.1°F2.3°C 32.9°F0.5°C 88% Calm Calm -- 30.13 in1020.3 mb 0.00 in0.0 mm 0.00 in0.0 mm 0.00 in0.0 mm
03:19 AM 36.1°F2.3°C 32.9°F0.5°C 88% Calm Calm -- 30.13 in1020.3 mb 0.00 in0.0 mm 0.00 in0.0 mm 0.00 in0.0 mm
03:24 AM 36.1°F2.3°C 32.9°F0.5°C 88% Calm Calm 6.0 mph9.7 kmh 30.13 in1020.3 mb 0.00 in0.0 mm 0.00 in0.0 mm 0.00 in0.0 mm
03:29 AM 36.2°F2.3°C 33.0°F0.6°C 88% Calm Calm -- 30.13 in1020.3 mb 0.00 in0.0 mm 0.00 in0.0 mm 0.00 in0.0 mm
03:34 AM 36.2°F2.3°C 33.0°F0.6°C 88% Calm Calm -- 30.13 in1020.3 mb 0.00 in0.0 mm 0.00 in0.0 mm 0.00 in0.0 mm
03:39 AM 36.2°F2.3°C 33.0°F0.6°C 88% Calm Calm 1.0 mph1.6 kmh 30.13 in1020.3 mb 0.00 in0.0 mm 0.00 in0.0 mm 0.00 in0.0 mm
03:44 AM 36.2°F2.3°C 33.0°F0.6°C 88% 1.0 mph ESE1.6 kmh ESE 1.0 mph1.6 kmh 30.13 in1020.3 mb 0.00 in0.0 mm 0.00 in0.0 mm 0.00 in0.0 mm
03:49 AM 36.2°F2.3°C 33.0°F0.6°C 88% Calm Calm 1.0 mph1.6 kmh 30.13 in1020.3 mb 0.00 in0.0 mm 0.00 in0.0 mm 0.00 in0.0 mm
03:54 AM 36.2°F2.3°C 33.0°F0.6°C 88% 1.0 mph ESE1.6 kmh ESE 3.0 mph4.8 kmh 30.13 in1020.3 mb 0.00 in0.0 mm 0.00 in0.0 mm 0.00 in0.0 mm
03:59 AM 36.2°F2.3°C 33.0°F0.6°C 88% Calm Calm -- 30.13 in1020.3 mb 0.00 in0.0 mm 0.00 in0.0 mm 0.00 in0.0 mm
04:04 AM 36.2°F2.3°C 33.0°F0.6°C 88% Calm Calm -- 30.13 in1020.3 mb 0.00 in0.0 mm 0.00 in0.0 mm 0.00 in0.0 mm
04:09 AM 36.2°F2.3°C 33.0°F0.6°C 88% Calm Calm -- 30.13 in1020.3 mb 0.00 in0.0 mm 0.00 in0.0 mm 0.00 in0.0 mm
04:14 AM 36.2°F2.3°C 33.0°F0.6°C 88% Calm Calm 3.0 mph4.8 kmh 30.13 in1020.3 mb 0.00 in0.0 mm 0.00 in0.0 mm 0.00 in0.0 mm
04:19 AM 36.2°F2.3°C 32.7°F0.4°C 87% Calm Calm -- 30.12 in1020.0 mb 0.00 in0.0 mm 0.00 in0.0 mm 0.00 in0.0 mm
04:24 AM 36.2°F2.3°C 33.0°F0.6°C 88% Calm Calm -- 30.12 in1020.0 mb 0.00 in0.0 mm 0.00 in0.0 mm 0.00 in0.0 mm
04:29 AM 36.2°F2.3°C 32.7°F0.4°C 87% Calm Calm 3.0 mph4.8 kmh 30.12 in1020.0 mb 0.00 in0.0 mm 0.00 in0.0 mm 0.00 in0.0 mm
04:34 AM 36.2°F2.3°C 32.7°F0.4°C 87% 3.0 mph ESE4.8 kmh ESE 3.0 mph4.8 kmh 30.12 in1020.0 mb 0.00 in0.0 mm 0.00 in0.0 mm 0.00 in0.0 mm
04:39 AM 36.1°F2.3°C 32.6°F0.3°C 87% 3.0 mph ESE4.8 kmh ESE 6.0 mph9.7 kmh 30.12 in1020.0 mb 0.00 in0.0 mm 0.00 in0.0 mm 0.00 in0.0 mm
04:44 AM 36.1°F2.3°C 32.6°F0.3°C 87% Calm Calm 1.0 mph1.6 kmh 30.11 in1019.6 mb 0.00 in0.0 mm 0.00 in0.0 mm 0.00 in0.0 mm
04:49 AM 36.1°F2.3°C 32.6°F0.3°C 87% 1.0 mph ESE1.6 kmh ESE 7.0 mph11.3 kmh 30.11 in1019.6 mb 0.00 in0.0 mm 0.00 in0.0 mm 0.00 in0.0 mm
04:54 AM 36.0°F2.2°C 32.5°F0.3°C 87% Calm Calm 7.0 mph11.3 kmh 30.11 in1019.6 mb 0.00 in0.0 mm 0.00 in0.0 mm 0.00 in0.0 mm
04:59 AM 36.1°F2.3°C 32.6°F0.3°C 87% 2.0 mph ESE3.2 kmh ESE 3.0 mph4.8 kmh 30.11 in1019.6 mb 0.00 in0.0 mm 0.00 in0.0 mm 0.00 in0.0 mm
05:04 AM 36.0°F2.2°C 32.2°F0.1°C 86% 1.0 mph SE1.6 kmh SE 9.0 mph14.5 kmh 30.10 in1019.3 mb 0.00 in0.0 mm 0.00 in0.0 mm 0.00 in0.0 mm
05:09 AM 36.1°F2.3°C 32.3°F0.2°C 86% Calm Calm -- 30.10 in1019.3 mb 0.00 in0.0 mm 0.00 in0.0 mm 0.00 in0.0 mm
05:14 AM 36.1°F2.3°C 32.3°F0.2°C 86% 5.0 mph E8.0 kmh E 7.0 mph11.3 kmh 30.09 in1019.0 mb 0.00 in0.0 mm 0.00 in0.0 mm 0.00 in0.0 mm
05:19 AM 36.1°F2.3°C 32.3°F0.2°C 86% 1.0 mph E1.6 kmh E 1.0 mph1.6 kmh 30.09 in1019.0 mb 0.00 in0.0 mm 0.00 in0.0 mm 0.00 in0.0 mm
05:24 AM 36.0°F2.2°C 32.2°F0.1°C 86% Calm Calm 2.0 mph3.2 kmh 30.09 in1019.0 mb 0.00 in0.0 mm 0.00 in0.0 mm 0.00 in0.0 mm
05:29 AM 36.1°F2.3°C 32.3°F0.2°C 86% Calm Calm -- 30.09 in1019.0 mb 0.00 in0.0 mm 0.00 in0.0 mm 0.00 in0.0 mm
05:34 AM 36.0°F2.2°C 32.2°F0.1°C 86% Calm Calm 3.0 mph4.8 kmh 30.09 in1019.0 mb 0.00 in0.0 mm 0.00 in0.0 mm 0.00 in0.0 mm
05:39 AM 36.1°F2.3°C 32.3°F0.2°C 86% 2.0 mph E3.2 kmh E 3.0 mph4.8 kmh 30.08 in1018.6 mb 0.00 in0.0 mm 0.00 in0.0 mm 0.00 in0.0 mm
05:44 AM 36.1°F2.3°C 32.3°F0.2°C 86% Calm Calm 7.0 mph11.3 kmh 30.08 in1018.6 mb 0.00 in0.0 mm 0.00 in0.0 mm 0.00 in0.0 mm
05:49 AM 36.1°F2.3°C 32.3°F0.2°C 86% 2.0 mph E3.2 kmh E 7.0 mph11.3 kmh 30.08 in1018.6 mb 0.00 in0.0 mm 0.00 in0.0 mm 0.00 in0.0 mm
05:54 AM 36.1°F2.3°C 32.3°F0.2°C 86% Calm Calm 9.0 mph14.5 kmh 30.08 in1018.6 mb 0.00 in0.0 mm 0.00 in0.0 mm 0.00 in0.0 mm
05:59 AM 36.1°F2.3°C 32.3°F0.2°C 86% Calm Calm 4.0 mph6.4 kmh 30.07 in1018.3 mb 0.00 in0.0 mm 0.00 in0.0 mm 0.00 in0.0 mm
06:04 AM 36.1°F2.3°C 32.3°F0.2°C 86% 3.0 mph ENE4.8 kmh ENE 3.0 mph4.8 kmh 30.07 in1018.3 mb 0.00 in0.0 mm 0.00 in0.0 mm 0.00 in0.0 mm
06:09 AM 36.1°F2.3°C 32.3°F0.2°C 86% Calm Calm 3.0 mph4.8 kmh 30.07 in1018.3 mb 0.00 in0.0 mm 0.00 in0.0 mm 0.00 in0.0 mm
06:14 AM 36.2°F2.3°C 32.4°F0.2°C 86% 1.0 mph E1.6 kmh E 3.0 mph4.8 kmh 30.07 in1018.3 mb 0.00 in0.0 mm 0.00 in0.0 mm 0.00 in0.0 mm
06:19 AM 36.2°F2.3°C 32.4°F0.2°C 86% Calm Calm -- 30.07 in1018.3 mb 0.00 in0.0 mm 0.00 in0.0 mm 0.00 in0.0 mm
06:24 AM 36.2°F2.3°C 32.4°F0.2°C 86% Calm Calm 3.0 mph4.8 kmh 30.07 in1018.3 mb 0.00 in0.0 mm 0.00 in0.0 mm 0.00 in0.0 mm
06:29 AM 36.2°F2.3°C 32.4°F0.2°C 86% Calm Calm 2.0 mph3.2 kmh 30.08 in1018.6 mb 0.00 in0.0 mm 0.00 in0.0 mm 0.00 in0.0 mm
06:34 AM 36.2°F2.3°C 32.4°F0.2°C 86% 1.0 mph ESE1.6 kmh ESE 1.0 mph1.6 kmh 30.08 in1018.6 mb 0.00 in0.0 mm 0.00 in0.0 mm 0.00 in0.0 mm
06:39 AM 36.3°F2.4°C 32.5°F0.3°C 86% Calm Calm -- 30.08 in1018.6 mb 0.00 in0.0 mm 0.00 in0.0 mm 0.00 in0.0 mm
06:44 AM 36.3°F2.4°C 32.5°F0.3°C 86% Calm Calm -- 30.08 in1018.6 mb 0.00 in0.0 mm 0.00 in0.0 mm 0.00 in0.0 mm
06:49 AM 36.3°F2.4°C 32.5°F0.3°C 86% Calm Calm -- 30.09 in1019.0 mb 0.00 in0.0 mm 0.00 in0.0 mm 0.00 in0.0 mm
06:54 AM 36.3°F2.4°C 32.5°F0.3°C 86% 1.0 mph ESE1.6 kmh ESE 3.0 mph4.8 kmh 30.09 in1019.0 mb 0.00 in0.0 mm 0.00 in0.0 mm 0.00 in0.0 mm
06:59 AM 36.4°F2.4°C 32.6°F0.3°C 86% Calm Calm -- 30.09 in1019.0 mb 0.00 in0.0 mm 0.00 in0.0 mm 0.00 in0.0 mm
07:04 AM 36.4°F2.4°C 32.6°F0.3°C 86% Calm Calm -- 30.09 in1019.0 mb 0.00 in0.0 mm 0.00 in0.0 mm 0.00 in0.0 mm
07:09 AM 36.4°F2.4°C 32.6°F0.3°C 86% Calm Calm 2.0 mph3.2 kmh 30.09 in1019.0 mb 0.00 in0.0 mm 0.00 in0.0 mm 0.00 in0.0 mm
07:14 AM 36.5°F2.5°C 32.7°F0.4°C 86% Calm Calm 7.0 mph11.3 kmh 30.08 in1018.6 mb 0.00 in0.0 mm 0.00 in0.0 mm 0.00 in0.0 mm
07:19 AM 36.5°F2.5°C 32.7°F0.4°C 86% Calm Calm 7.0 mph11.3 kmh 30.08 in1018.6 mb 0.00 in0.0 mm 0.00 in0.0 mm 0.00 in0.0 mm
07:24 AM 36.6°F2.6°C 32.8°F0.4°C 86% Calm Calm 5.0 mph8.0 kmh 30.07 in1018.3 mb 0.00 in0.0 mm 0.00 in0.0 mm 0.00 in0.0 mm
07:29 AM 36.6°F2.6°C 32.8°F0.4°C 86% 1.0 mph E1.6 kmh E 5.0 mph8.0 kmh 30.06 in1017.9 mb 0.00 in0.0 mm 0.00 in0.0 mm 0.00 in0.0 mm
07:34 AM 36.6°F2.6°C 32.8°F0.4°C 86% Calm Calm 7.0 mph11.3 kmh 30.05 in1017.6 mb 0.00 in0.0 mm 0.00 in0.0 mm 0.00 in0.0 mm
07:39 AM 36.7°F2.6°C 32.9°F0.5°C 86% 1.0 mph ENE1.6 kmh ENE 7.0 mph11.3 kmh 30.05 in1017.6 mb 0.00 in0.0 mm 0.00 in0.0 mm 0.00 in0.0 mm
07:44 AM 36.7°F2.6°C 32.9°F0.5°C 86% Calm Calm 7.0 mph11.3 kmh 30.05 in1017.6 mb 0.00 in0.0 mm 0.00 in0.0 mm 0.00 in0.0 mm
07:49 AM 36.7°F2.6°C 32.9°F0.5°C 86% 4.0 mph ENE6.4 kmh ENE 9.0 mph14.5 kmh 30.05 in1017.6 mb 0.00 in0.0 mm 0.00 in0.0 mm 0.00 in0.0 mm
07:54 AM 36.7°F2.6°C 32.9°F0.5°C 86% 2.0 mph E3.2 kmh E 9.0 mph14.5 kmh 30.05 in1017.6 mb 0.00 in0.0 mm 0.00 in0.0 mm 0.00 in0.0 mm
07:59 AM 36.7°F2.6°C 32.9°F0.5°C 86% 1.0 mph E1.6 kmh E 9.0 mph14.5 kmh 30.05 in1017.6 mb 0.00 in0.0 mm 0.00 in0.0 mm 0.00 in0.0 mm
08:04 AM 36.7°F2.6°C 32.9°F0.5°C 86% Calm Calm 8.0 mph12.9 kmh 30.05 in1017.6 mb 0.00 in0.0 mm 0.00 in0.0 mm 0.00 in0.0 mm
08:09 AM 36.7°F2.6°C 32.9°F0.5°C 86% Calm Calm 2.0 mph3.2 kmh 30.05 in1017.6 mb 0.00 in0.0 mm 0.00 in0.0 mm 0.00 in0.0 mm
08:14 AM 36.7°F2.6°C 32.9°F0.5°C 86% Calm Calm 1.0 mph1.6 kmh 30.05 in1017.6 mb 0.00 in0.0 mm 0.00 in0.0 mm 0.00 in0.0 mm
08:19 AM 36.7°F2.6°C 32.9°F0.5°C 86% Calm Calm 7.0 mph11.3 kmh 30.04 in1017.3 mb 0.00 in0.0 mm 0.00 in0.0 mm 0.00 in0.0 mm
08:24 AM 36.6°F2.6°C 32.8°F0.4°C 86% 3.0 mph ENE4.8 kmh ENE 7.0 mph11.3 kmh 30.04 in1017.3 mb 0.00 in0.0 mm 0.00 in0.0 mm 0.00 in0.0 mm
08:29 AM 36.6°F2.6°C 32.8°F0.4°C 86% Calm Calm 8.0 mph12.9 kmh 30.04 in1017.3 mb 0.00 in0.0 mm 0.00 in0.0 mm 0.00 in0.0 mm
08:34 AM 36.6°F2.6°C 32.8°F0.4°C 86% 1.0 mph ENE1.6 kmh ENE 8.0 mph12.9 kmh 30.04 in1017.3 mb 0.00 in0.0 mm 0.00 in0.0 mm 0.00 in0.0 mm
08:39 AM 36.7°F2.6°C 32.9°F0.5°C 86% 1.0 mph E1.6 kmh E 5.0 mph8.0 kmh 30.04 in1017.3 mb 0.00 in0.0 mm 0.00 in0.0 mm 0.00 in0.0 mm
08:44 AM 36.7°F2.6°C 32.9°F0.5°C 86% Calm Calm 6.0 mph9.7 kmh 30.03 in1016.9 mb 0.00 in0.0 mm 0.00 in0.0 mm 0.00 in0.0 mm
08:49 AM 36.7°F2.6°C 32.9°F0.5°C 86% Calm Calm 6.0 mph9.7 kmh 30.02 in1016.6 mb 0.00 in0.0 mm 0.00 in0.0 mm 0.00 in0.0 mm
08:54 AM 36.8°F2.7°C 33.0°F0.6°C 86% 2.0 mph E3.2 kmh E 10.0 mph16.1 kmh 30.02 in1016.6 mb 0.00 in0.0 mm 0.00 in0.0 mm 0.00 in0.0 mm
08:59 AM 36.8°F2.7°C 33.0°F0.6°C 86% Calm Calm 10.0 mph16.1 kmh 30.02 in1016.6 mb 0.00 in0.0 mm 0.00 in0.0 mm 0.00 in0.0 mm
09:04 AM 36.8°F2.7°C 33.0°F0.6°C 86% 3.0 mph ENE4.8 kmh ENE 3.0 mph4.8 kmh 30.01 in1016.3 mb 0.00 in0.0 mm 0.00 in0.0 mm 0.00 in0.0 mm
09:09 AM 36.8°F2.7°C 33.0°F0.6°C 86% 3.0 mph ENE4.8 kmh ENE 4.0 mph6.4 kmh 30.00 in1015.9 mb 0.00 in0.0 mm 0.00 in0.0 mm 0.00 in0.0 mm
09:14 AM 36.8°F2.7°C 32.7°F0.4°C 85% Calm Calm 7.0 mph11.3 kmh 30.00 in1015.9 mb 0.00 in0.0 mm 0.00 in0.0 mm 0.00 in0.0 mm
09:19 AM 36.8°F2.7°C 32.7°F0.4°C 85% 2.0 mph E3.2 kmh E 7.0 mph11.3 kmh 30.00 in1015.9 mb 0.00 in0.0 mm 0.00 in0.0 mm 0.00 in0.0 mm
09:24 AM 36.8°F2.7°C 32.7°F0.4°C 85% 4.0 mph ENE6.4 kmh ENE 8.0 mph12.9 kmh 30.00 in1015.9 mb 0.00 in0.0 mm 0.00 in0.0 mm 0.00 in0.0 mm
09:29 AM 36.9°F2.7°C 32.8°F0.4°C 85% Calm Calm 9.0 mph14.5 kmh 30.01 in1016.3 mb 0.00 in0.0 mm 0.00 in0.0 mm 0.00 in0.0 mm
09:34 AM 36.9°F2.7°C 32.8°F0.4°C 85% Calm Calm 9.0 mph14.5 kmh 30.01 in1016.3 mb 0.00 in0.0 mm 0.00 in0.0 mm 0.00 in0.0 mm
09:39 AM 37.0°F2.8°C 32.9°F0.5°C 85% 3.0 mph E4.8 kmh E 9.0 mph14.5 kmh 30.01 in1016.3 mb 0.00 in0.0 mm 0.00 in0.0 mm 0.00 in0.0 mm
09:44 AM 37.1°F2.8°C 33.0°F0.6°C 85% Calm Calm 9.0 mph14.5 kmh 30.01 in1016.3 mb 0.00 in0.0 mm 0.00 in0.0 mm 0.00 in0.0 mm
09:49 AM 37.2°F2.9°C 33.1°F0.6°C 85% 1.0 mph E1.6 kmh E 9.0 mph14.5 kmh 30.01 in1016.3 mb 0.00 in0.0 mm 0.00 in0.0 mm 0.00 in0.0 mm
09:54 AM 37.3°F2.9°C 33.2°F0.7°C 85% Calm Calm 9.0 mph14.5 kmh 30.01 in1016.3 mb 0.00 in0.0 mm 0.00 in0.0 mm 0.00 in0.0 mm
09:59 AM 37.4°F3.0°C 33.3°F0.7°C 85% 4.0 mph ENE6.4 kmh ENE 10.0 mph16.1 kmh 30.01 in1016.3 mb 0.00 in0.0 mm 0.00 in0.0 mm 0.00 in0.0 mm
10:04 AM 37.4°F3.0°C 33.3°F0.7°C 85% Calm Calm 4.0 mph6.4 kmh 30.01 in1016.3 mb 0.00 in0.0 mm 0.00 in0.0 mm 0.00 in0.0 mm
10:09 AM 37.5°F3.1°C 33.4°F0.8°C 85% 1.0 mph E1.6 kmh E 8.0 mph12.9 kmh 30.01 in1016.3 mb 0.00 in0.0 mm 0.00 in0.0 mm 0.00 in0.0 mm
10:14 AM 37.6°F3.1°C 33.5°F0.8°C 85% Calm Calm 8.0 mph12.9 kmh 30.02 in1016.6 mb 0.00 in0.0 mm 0.00 in0.0 mm 0.00 in0.0 mm
10:19 AM 37.6°F3.1°C 33.5°F0.8°C 85% Calm Calm 3.0 mph4.8 kmh 30.01 in1016.3 mb 0.00 in0.0 mm 0.00 in0.0 mm 0.00 in0.0 mm
10:24 AM 37.7°F3.2°C 33.6°F0.9°C 85% 2.0 mph E3.2 kmh E 6.0 mph9.7 kmh 30.00 in1015.9 mb 0.00 in0.0 mm 0.00 in0.0 mm 0.00 in0.0 mm
10:29 AM 37.8°F3.2°C 33.7°F0.9°C 85% 1.0 mph ESE1.6 kmh ESE 9.0 mph14.5 kmh 30.00 in1015.9 mb 0.00 in0.0 mm 0.00 in0.0 mm 0.00 in0.0 mm
10:34 AM 38.0°F3.3°C 33.6°F0.9°C 84% 2.0 mph E3.2 kmh E 9.0 mph14.5 kmh 29.99 in1015.6 mb 0.00 in0.0 mm 0.00 in0.0 mm 0.00 in0.0 mm
10:39 AM 38.0°F3.3°C 33.9°F1.1°C 85% 2.0 mph ESE3.2 kmh ESE 10.0 mph16.1 kmh 29.99 in1015.6 mb 0.00 in0.0 mm 0.00 in0.0 mm 0.00 in0.0 mm
10:44 AM 38.1°F3.4°C 34.0°F1.1°C 85% Calm Calm 10.0 mph16.1 kmh 29.98 in1015.2 mb 0.00 in0.0 mm 0.00 in0.0 mm 0.00 in0.0 mm
10:49 AM 38.2°F3.4°C 33.8°F1.0°C 84% 5.0 mph ENE8.0 kmh ENE 9.0 mph14.5 kmh 29.98 in1015.2 mb 0.00 in0.0 mm 0.00 in0.0 mm 0.00 in0.0 mm
10:54 AM 38.3°F3.5°C 33.9°F1.1°C 84% 1.0 mph E1.6 kmh E 10.0 mph16.1 kmh 29.98 in1015.2 mb 0.00 in0.0 mm 0.00 in0.0 mm 0.00 in0.0 mm
10:59 AM 38.3°F3.5°C 33.9°F1.1°C 84% 3.0 mph ENE4.8 kmh ENE 10.0 mph16.1 kmh 29.97 in1014.9 mb 0.00 in0.0 mm 0.00 in0.0 mm 0.00 in0.0 mm
11:04 AM 38.4°F3.6°C 34.0°F1.1°C 84% 7.0 mph E11.3 kmh E 10.0 mph16.1 kmh 29.97 in1014.9 mb 0.00 in0.0 mm 0.00 in0.0 mm 0.00 in0.0 mm
11:09 AM 38.5°F3.6°C 34.1°F1.2°C 84% 3.0 mph E4.8 kmh E 10.0 mph16.1 kmh 29.97 in1014.9 mb 0.00 in0.0 mm 0.00 in0.0 mm 0.00 in0.0 mm
11:14 AM 38.5°F3.6°C 34.1°F1.2°C 84% 3.0 mph ENE4.8 kmh ENE 10.0 mph16.1 kmh 29.97 in1014.9 mb 0.00 in0.0 mm 0.00 in0.0 mm 0.00 in0.0 mm
11:19 AM 38.5°F3.6°C 34.1°F1.2°C 84% 2.0 mph E3.2 kmh E 10.0 mph16.1 kmh 29.97 in1014.9 mb 0.00 in0.0 mm 0.00 in0.0 mm 0.00 in0.0 mm
11:24 AM 38.6°F3.7°C 34.2°F1.2°C 84% 3.0 mph E4.8 kmh E 10.0 mph16.1 kmh 29.97 in1014.9 mb 0.00 in0.0 mm 0.00 in0.0 mm 0.00 in0.0 mm
11:29 AM 38.6°F3.7°C 34.2°F1.2°C 84% 5.0 mph ESE8.0 kmh ESE 9.0 mph14.5 kmh 29.97 in1014.9 mb 0.00 in0.0 mm 0.00 in0.0 mm 0.00 in0.0 mm
11:34 AM 38.7°F3.7°C 34.3°F1.3°C 84% 9.0 mph E14.5 kmh E 9.0 mph14.5 kmh 29.97 in1014.9 mb 0.00 in0.0 mm 0.00 in0.0 mm 0.00 in0.0 mm
11:39 AM 38.7°F3.7°C 34.3°F1.3°C 84% 3.0 mph E4.8 kmh E 4.0 mph6.4 kmh 29.97 in1014.9 mb 0.00 in0.0 mm 0.00 in0.0 mm 0.00 in0.0 mm
11:44 AM 38.8°F3.8°C 34.4°F1.3°C 84% Calm Calm -- 29.98 in1015.2 mb 0.00 in0.0 mm 0.00 in0.0 mm 0.00 in0.0 mm
11:49 AM 38.9°F3.8°C 34.5°F1.4°C 84% Calm Calm 3.0 mph4.8 kmh 29.98 in1015.2 mb 0.00 in0.0 mm 0.00 in0.0 mm 0.00 in0.0 mm
11:54 AM 38.9°F3.8°C 34.5°F1.4°C 84% Calm Calm 6.0 mph9.7 kmh 29.98 in1015.2 mb 0.00 in0.0 mm 0.00 in0.0 mm 0.00 in0.0 mm
11:59 AM 39.0°F3.9°C 34.6°F1.4°C 84% Calm Calm 6.0 mph9.7 kmh 29.97 in1014.9 mb 0.00 in0.0 mm 0.00 in0.0 mm 0.00 in0.0 mm
12:04 PM 39.1°F3.9°C 34.7°F1.5°C 84% 1.0 mph ENE1.6 kmh ENE 3.0 mph4.8 kmh 29.96 in1014.6 mb 0.00 in0.0 mm 0.00 in0.0 mm 0.00 in0.0 mm
12:09 PM 39.2°F4.0°C 34.8°F1.6°C 84% 1.0 mph ENE1.6 kmh ENE 7.0 mph11.3 kmh 29.96 in1014.6 mb 0.00 in0.0 mm 0.00 in0.0 mm 0.00 in0.0 mm
12:14 PM 39.3°F4.1°C 34.6°F1.4°C 83% 7.0 mph E11.3 kmh E 9.0 mph14.5 kmh 29.96 in1014.6 mb 0.00 in0.0 mm 0.00 in0.0 mm 0.00 in0.0 mm
12:19 PM 39.3°F4.1°C 34.6°F1.4°C 83% 5.0 mph E8.0 kmh E 9.0 mph14.5 kmh 29.96 in1014.6 mb 0.00 in0.0 mm 0.00 in0.0 mm 0.00 in0.0 mm
12:24 PM 39.4°F4.1°C 34.6°F1.4°C 83% Calm Calm 9.0 mph14.5 kmh 29.96 in1014.6 mb 0.00 in0.0 mm 0.00 in0.0 mm 0.00 in0.0 mm
12:29 PM 39.4°F4.1°C 34.6°F1.4°C 83% Calm Calm 5.0 mph8.0 kmh 29.97 in1014.9 mb 0.00 in0.0 mm 0.00 in0.0 mm 0.00 in0.0 mm
12:34 PM 39.5°F4.2°C 34.7°F1.5°C 83% Calm Calm 5.0 mph8.0 kmh 29.96 in1014.6 mb 0.00 in0.0 mm 0.00 in0.0 mm 0.00 in0.0 mm
12:39 PM 39.6°F4.2°C 34.8°F1.6°C 83% Calm Calm 5.0 mph8.0 kmh 29.96 in1014.6 mb 0.00 in0.0 mm 0.00 in0.0 mm 0.00 in0.0 mm
12:44 PM 39.7°F4.3°C 34.9°F1.6°C 83% 4.0 mph ESE6.4 kmh ESE 7.0 mph11.3 kmh 29.95 in1014.2 mb 0.00 in0.0 mm 0.00 in0.0 mm 0.00 in0.0 mm
12:49 PM 39.8°F4.3°C 35.0°F1.7°C 83% Calm Calm 7.0 mph11.3 kmh 29.94 in1013.9 mb 0.00 in0.0 mm 0.00 in0.0 mm 0.00 in0.0 mm
12:54 PM 39.9°F4.4°C 34.8°F1.6°C 82% Calm Calm 7.0 mph11.3 kmh 29.93 in1013.5 mb 0.00 in0.0 mm 0.00 in0.0 mm 0.00 in0.0 mm
12:59 PM 40.0°F4.4°C 34.9°F1.6°C 82% Calm Calm 9.0 mph14.5 kmh 29.93 in1013.5 mb 0.00 in0.0 mm 0.00 in0.0 mm 0.00 in0.0 mm
01:04 PM 40.1°F4.5°C 35.0°F1.7°C 82% Calm Calm -- 29.92 in1013.2 mb 0.00 in0.0 mm 0.00 in0.0 mm 0.00 in0.0 mm
01:09 PM 40.2°F4.6°C 35.1°F1.7°C 82% 6.0 mph E9.7 kmh E 6.0 mph9.7 kmh 29.92 in1013.2 mb 0.00 in0.0 mm 0.00 in0.0 mm 0.00 in0.0 mm
01:14 PM 40.2°F4.6°C 35.1°F1.7°C 82% 2.0 mph E3.2 kmh E 7.0 mph11.3 kmh 29.91 in1012.9 mb 0.00 in0.0 mm 0.00 in0.0 mm 0.00 in0.0 mm
01:19 PM 40.3°F4.6°C 35.2°F1.8°C 82% Calm Calm 4.0 mph6.4 kmh 29.91 in1012.9 mb 0.00 in0.0 mm 0.00 in0.0 mm 0.00 in0.0 mm
01:24 PM 40.3°F4.6°C 35.2°F1.8°C 82% Calm Calm 1.0 mph1.6 kmh 29.90 in1012.5 mb 0.00 in0.0 mm 0.00 in0.0 mm 0.00 in0.0 mm
01:29 PM 40.3°F4.6°C 35.2°F1.8°C 82% 3.0 mph E4.8 kmh E 3.0 mph4.8 kmh 29.90 in1012.5 mb 0.00 in0.0 mm 0.00 in0.0 mm 0.00 in0.0 mm
01:34 PM 40.4°F4.7°C 35.3°F1.8°C 82% Calm Calm 8.0 mph12.9 kmh 29.89 in1012.2 mb 0.00 in0.0 mm 0.00 in0.0 mm 0.00 in0.0 mm
01:39 PM 40.4°F4.7°C 35.3°F1.8°C 82% 2.0 mph E3.2 kmh E 5.0 mph8.0 kmh 29.89 in1012.2 mb 0.00 in0.0 mm 0.00 in0.0 mm 0.00 in0.0 mm
01:44 PM 40.5°F4.7°C 35.4°F1.9°C 82% Calm Calm 6.0 mph9.7 kmh 29.87 in1011.5 mb 0.00 in0.0 mm 0.00 in0.0 mm 0.00 in0.0 mm
01:49 PM 40.6°F4.8°C 35.5°F1.9°C 82% Calm Calm 5.0 mph8.0 kmh 29.87 in1011.5 mb 0.00 in0.0 mm 0.00 in0.0 mm 0.00 in0.0 mm
01:54 PM 40.5°F4.7°C 35.7°F2.1°C 83% 2.0 mph E3.2 kmh E 5.0 mph8.0 kmh 29.86 in1011.2 mb 0.00 in0.0 mm 0.00 in0.0 mm 0.00 in0.0 mm
01:59 PM 40.4°F4.7°C 35.6°F2.0°C 83% Calm Calm 8.0 mph12.9 kmh 29.86 in1011.2 mb 0.00 in0.0 mm 0.00 in0.0 mm 0.00 in0.0 mm
02:04 PM 40.4°F4.7°C 35.9°F2.2°C 84% 1.0 mph E1.6 kmh E 3.0 mph4.8 kmh 29.85 in1010.8 mb 0.00 in0.0 mm 0.00 in0.0 mm 0.01 in0.3 mm
02:09 PM 40.3°F4.6°C 35.8°F2.1°C 84% 2.0 mph E3.2 kmh E 7.0 mph11.3 kmh 29.84 in1010.5 mb 0.00 in0.0 mm 0.00 in0.0 mm 0.01 in0.3 mm
02:14 PM 40.3°F4.6°C 36.1°F2.3°C 85% Calm Calm 8.0 mph12.9 kmh 29.83 in1010.2 mb 0.04 in1.0 mm 0.48 in12.2 mm 0.01 in0.3 mm
02:19 PM 40.4°F4.7°C 36.2°F2.3°C 85% 1.0 mph E1.6 kmh E 6.0 mph9.7 kmh 29.83 in1010.2 mb 0.04 in1.0 mm 0.00 in0.0 mm 0.02 in0.5 mm
02:24 PM 40.5°F4.7°C 36.6°F2.6°C 86% 1.0 mph E1.6 kmh E 8.0 mph12.9 kmh 29.82 in1009.8 mb 0.04 in1.0 mm 0.00 in0.0 mm 0.02 in0.5 mm
02:29 PM 40.5°F4.7°C 36.6°F2.6°C 86% 2.0 mph E3.2 kmh E 8.0 mph12.9 kmh 29.82 in1009.8 mb 0.04 in1.0 mm 0.00 in0.0 mm 0.02 in0.5 mm
02:34 PM 40.5°F4.7°C 36.6°F2.6°C 86% Calm Calm 9.0 mph14.5 kmh 29.81 in1009.5 mb 0.00 in0.0 mm 0.00 in0.0 mm 0.02 in0.5 mm
02:39 PM 40.5°F4.7°C 36.6°F2.6°C 86% 7.0 mph E11.3 kmh E 8.0 mph12.9 kmh 29.82 in1009.8 mb 0.00 in0.0 mm 0.00 in0.0 mm 0.03 in0.8 mm
02:44 PM 40.5°F4.7°C 36.6°F2.6°C 86% Calm Calm -- 29.81 in1009.5 mb 0.00 in0.0 mm 0.00 in0.0 mm 0.03 in0.8 mm
02:49 PM 40.5°F4.7°C 36.9°F2.7°C 87% Calm Calm 4.0 mph6.4 kmh 29.81 in1009.5 mb 0.06 in1.5 mm 0.72 in18.3 mm 0.04 in1.0 mm
02:54 PM 40.5°F4.7°C 36.9°F2.7°C 87% Calm Calm -- 29.81 in1009.5 mb 0.06 in1.5 mm 0.00 in0.0 mm 0.04 in1.0 mm
02:59 PM 40.5°F4.7°C 36.9°F2.7°C 87% Calm Calm 5.0 mph8.0 kmh 29.80 in1009.1 mb 0.05 in1.3 mm 0.00 in0.0 mm 0.04 in1.0 mm
03:04 PM 40.5°F4.7°C 36.9°F2.7°C 87% Calm Calm 6.0 mph9.7 kmh 29.79 in1008.8 mb 0.04 in1.0 mm 0.00 in0.0 mm 0.04 in1.0 mm
03:09 PM 40.5°F4.7°C 36.9°F2.7°C 87% Calm Calm 4.0 mph6.4 kmh 29.79 in1008.8 mb 0.14 in3.6 mm 1.20 in30.5 mm 0.06 in1.5 mm
03:14 PM 40.5°F4.7°C 36.9°F2.7°C 87% Calm Calm -- 29.79 in1008.8 mb 0.08 in2.0 mm 0.00 in0.0 mm 0.06 in1.5 mm
03:19 PM 40.5°F4.7°C 36.9°F2.7°C 87% Calm Calm 5.0 mph8.0 kmh 29.78 in1008.5 mb 0.07 in1.8 mm 0.00 in0.0 mm 0.07 in1.8 mm
03:24 PM 40.5°F4.7°C 37.2°F2.9°C 88% Calm Calm 7.0 mph11.3 kmh 29.78 in1008.5 mb 0.08 in2.0 mm 0.12 in3.0 mm 0.08 in2.0 mm
03:29 PM 40.5°F4.7°C 37.2°F2.9°C 88% Calm Calm -- 29.77 in1008.1 mb 0.11 in2.8 mm 0.36 in9.1 mm 0.09 in2.3 mm
03:34 PM 40.6°F4.8°C 37.3°F2.9°C 88% 2.0 mph E3.2 kmh E 7.0 mph11.3 kmh 29.77 in1008.1 mb 0.17 in4.3 mm 0.72 in18.3 mm 0.10 in2.5 mm
03:39 PM 40.7°F4.8°C 37.4°F3.0°C 88% Calm Calm 7.0 mph11.3 kmh 29.77 in1008.1 mb 0.24 in6.1 mm 0.84 in21.3 mm 0.12 in3.0 mm
03:44 PM 40.7°F4.8°C 37.4°F3.0°C 88% Calm Calm 3.0 mph4.8 kmh 29.77 in1008.1 mb 0.27 in6.9 mm 0.36 in9.1 mm 0.13 in3.3 mm
03:49 PM 40.8°F4.9°C 37.5°F3.1°C 88% Calm Calm 5.0 mph8.0 kmh 29.76 in1007.8 mb 0.18 in4.6 mm 0.00 in0.0 mm 0.15 in3.8 mm
03:54 PM 40.8°F4.9°C 37.5°F3.1°C 88% Calm Calm 7.0 mph11.3 kmh 29.76 in1007.8 mb 0.15 in3.8 mm 0.00 in0.0 mm 0.16 in4.1 mm
03:59 PM 40.9°F4.9°C 37.6°F3.1°C 88% Calm Calm 1.0 mph1.6 kmh 29.77 in1008.1 mb 0.20 in5.1 mm 0.60 in15.2 mm 0.17 in4.3 mm
04:04 PM 40.9°F4.9°C 37.6°F3.1°C 88% Calm Calm 6.0 mph9.7 kmh 29.77 in1008.1 mb 0.29 in7.4 mm 0.10 in2.5 mm 0.20 in5.1 mm
04:09 PM 41.0°F5.0°C 37.7°F3.2°C 88% Calm Calm 2.0 mph3.2 kmh 29.77 in1008.1 mb 0.24 in6.1 mm 0.00 in0.0 mm 0.22 in5.6 mm
04:14 PM 41.0°F5.0°C 37.7°F3.2°C 88% 6.0 mph SE9.7 kmh SE 6.0 mph9.7 kmh 29.76 in1007.8 mb 0.24 in6.1 mm 0.00 in0.0 mm 0.24 in6.1 mm
04:19 PM 41.0°F5.0°C 38.0°F3.3°C 89% Calm Calm 4.0 mph6.4 kmh 29.76 in1007.8 mb 0.17 in4.3 mm 0.00 in0.0 mm 0.26 in6.6 mm
04:24 PM 41.1°F5.1°C 38.1°F3.4°C 89% Calm Calm -- 29.77 in1008.1 mb 0.16 in4.1 mm 0.00 in0.0 mm 0.28 in7.1 mm
04:29 PM 41.2°F5.1°C 38.2°F3.4°C 89% Calm Calm 4.0 mph6.4 kmh 29.76 in1007.8 mb 0.13 in3.3 mm 0.00 in0.0 mm 0.29 in7.4 mm
04:34 PM 41.2°F5.1°C 38.2°F3.4°C 89% Calm Calm 3.0 mph4.8 kmh 29.76 in1007.8 mb 0.17 in4.3 mm 0.48 in12.2 mm 0.30 in7.6 mm
04:39 PM 41.3°F5.2°C 38.3°F3.5°C 89% Calm Calm -- 29.75 in1007.5 mb 0.24 in6.1 mm 0.84 in21.3 mm 0.32 in8.1 mm
04:44 PM 41.4°F5.2°C 38.4°F3.6°C 89% 1.0 mph E1.6 kmh E 4.0 mph6.4 kmh 29.75 in1007.5 mb 0.16 in4.1 mm 0.00 in0.0 mm 0.34 in8.6 mm
04:49 PM 41.5°F5.3°C 38.5°F3.6°C 89% Calm Calm 4.0 mph6.4 kmh 29.75 in1007.5 mb 0.19 in4.8 mm 0.36 in9.1 mm 0.36 in9.1 mm
04:54 PM 41.5°F5.3°C 38.5°F3.6°C 89% Calm Calm -- 29.75 in1007.5 mb 0.09 in2.3 mm 0.00 in0.0 mm 0.36 in9.1 mm
04:59 PM 41.5°F5.3°C 38.5°F3.6°C 89% Calm Calm -- 29.75 in1007.5 mb 0.09 in2.3 mm 0.00 in0.0 mm 0.37 in9.4 mm
05:04 PM 41.6°F5.3°C 38.6°F3.7°C 89% Calm Calm 7.0 mph11.3 kmh 29.75 in1007.5 mb 0.06 in1.5 mm 0.00 in0.0 mm 0.37 in9.4 mm
05:09 PM 41.7°F5.4°C 38.7°F3.7°C 89% Calm Calm 1.0 mph1.6 kmh 29.75 in1007.5 mb 0.06 in1.5 mm 0.00 in0.0 mm 0.38 in9.7 mm
05:14 PM 41.8°F5.4°C 38.8°F3.8°C 89% Calm Calm 5.0 mph8.0 kmh 29.74 in1007.1 mb 0.06 in1.5 mm 0.00 in0.0 mm 0.38 in9.7 mm
05:19 PM 41.8°F5.4°C 38.8°F3.8°C 89% Calm Calm -- 29.74 in1007.1 mb 0.04 in1.0 mm 0.00 in0.0 mm 0.38 in9.7 mm
05:24 PM 41.9°F5.5°C 38.9°F3.8°C 89% Calm Calm -- 29.74 in1007.1 mb 0.00 in0.0 mm 0.00 in0.0 mm 0.38 in9.7 mm
05:29 PM 41.9°F5.5°C 38.9°F3.8°C 89% Calm Calm -- 29.74 in1007.1 mb 0.00 in0.0 mm 0.00 in0.0 mm 0.39 in9.9 mm
05:34 PM 42.0°F5.6°C 39.0°F3.9°C 89% Calm Calm -- 29.74 in1007.1 mb 0.00 in0.0 mm 0.00 in0.0 mm 0.39 in9.9 mm
05:39 PM 42.0°F5.6°C 39.0°F3.9°C 89% Calm Calm -- 29.74 in1007.1 mb 0.00 in0.0 mm 0.00 in0.0 mm 0.39 in9.9 mm
05:44 PM 42.0°F5.6°C 39.0°F3.9°C 89% 2.0 mph E3.2 kmh E 2.0 mph3.2 kmh 29.74 in1007.1 mb 0.00 in0.0 mm 0.00 in0.0 mm 0.39 in9.9 mm
05:49 PM 42.0°F5.6°C 39.0°F3.9°C 89% Calm Calm -- 29.74 in1007.1 mb 0.00 in0.0 mm 0.00 in0.0 mm 0.39 in9.9 mm
05:54 PM 42.1°F5.6°C 39.1°F3.9°C 89% Calm Calm -- 29.73 in1006.8 mb 0.00 in0.0 mm 0.00 in0.0 mm 0.39 in9.9 mm
05:59 PM 42.1°F5.6°C 39.1°F3.9°C 89% 1.0 mph SE1.6 kmh SE 3.0 mph4.8 kmh 29.73 in1006.8 mb 0.00 in0.0 mm 0.00 in0.0 mm 0.39 in9.9 mm
06:04 PM 42.2°F5.7°C 39.2°F4.0°C 89% Calm Calm 4.0 mph6.4 kmh 29.72 in1006.4 mb 0.00 in0.0 mm 0.00 in0.0 mm 0.39 in9.9 mm
06:09 PM 42.2°F5.7°C 39.2°F4.0°C 89% Calm Calm -- 29.71 in1006.1 mb 0.00 in0.0 mm 0.00 in0.0 mm 0.39 in9.9 mm
06:14 PM 42.3°F5.7°C 39.3°F4.1°C 89% 2.0 mph ESE3.2 kmh ESE 5.0 mph8.0 kmh 29.71 in1006.1 mb 0.00 in0.0 mm 0.00 in0.0 mm 0.39 in9.9 mm
06:19 PM 42.3°F5.7°C 39.3°F4.1°C 89% Calm Calm 3.0 mph4.8 kmh 29.70 in1005.8 mb 0.00 in0.0 mm 0.00 in0.0 mm 0.39 in9.9 mm
06:24 PM 42.4°F5.8°C 39.4°F4.1°C 89% 2.0 mph E3.2 kmh E 2.0 mph3.2 kmh 29.70 in1005.8 mb 0.00 in0.0 mm 0.00 in0.0 mm 0.39 in9.9 mm
06:29 PM 42.4°F5.8°C 39.4°F4.1°C 89% Calm Calm 8.0 mph12.9 kmh 29.69 in1005.4 mb 0.00 in0.0 mm 0.00 in0.0 mm 0.39 in9.9 mm
06:34 PM 42.5°F5.8°C 39.5°F4.2°C 89% 1.0 mph E1.6 kmh E 8.0 mph12.9 kmh 29.68 in1005.1 mb 0.00 in0.0 mm 0.00 in0.0 mm 0.39 in9.9 mm
06:39 PM 42.6°F5.9°C 39.6°F4.2°C 89% Calm Calm -- 29.68 in1005.1 mb 0.00 in0.0 mm 0.00 in0.0 mm 0.39 in9.9 mm
06:44 PM 42.6°F5.9°C 39.6°F4.2°C 89% 2.0 mph E3.2 kmh E 5.0 mph8.0 kmh 29.68 in1005.1 mb 0.00 in0.0 mm 0.00 in0.0 mm 0.39 in9.9 mm
06:49 PM 42.7°F5.9°C 39.7°F4.3°C 89% Calm Calm -- 29.69 in1005.4 mb 0.00 in0.0 mm 0.00 in0.0 mm 0.39 in9.9 mm
06:54 PM 42.8°F6.0°C 39.8°F4.3°C 89% Calm Calm -- 29.69 in1005.4 mb 0.00 in0.0 mm 0.00 in0.0 mm 0.39 in9.9 mm
06:59 PM 43.0°F6.1°C 40.0°F4.4°C 89% Calm Calm 5.0 mph8.0 kmh 29.68 in1005.1 mb 0.00 in0.0 mm 0.00 in0.0 mm 0.39 in9.9 mm
07:04 PM 43.1°F6.2°C 40.1°F4.5°C 89% Calm Calm -- 29.67 in1004.7 mb 0.00 in0.0 mm 0.00 in0.0 mm 0.39 in9.9 mm
07:09 PM 43.3°F6.3°C 40.3°F4.6°C 89% 1.0 mph ESE1.6 kmh ESE 6.0 mph9.7 kmh 29.67 in1004.7 mb 0.00 in0.0 mm 0.00 in0.0 mm 0.39 in9.9 mm
07:14 PM 43.4°F6.3°C 40.4°F4.7°C 89% Calm Calm 1.0 mph1.6 kmh 29.67 in1004.7 mb 0.00 in0.0 mm 0.00 in0.0 mm 0.39 in9.9 mm
07:19 PM 43.6°F6.4°C 40.6°F4.8°C 89% Calm Calm -- 29.68 in1005.1 mb 0.00 in0.0 mm 0.00 in0.0 mm 0.39 in9.9 mm
07:24 PM 43.6°F6.4°C 40.6°F4.8°C 89% Calm Calm -- 29.68 in1005.1 mb 0.00 in0.0 mm 0.00 in0.0 mm 0.39 in9.9 mm
07:29 PM 43.7°F6.5°C 40.7°F4.8°C 89% Calm Calm -- 29.68 in1005.1 mb 0.00 in0.0 mm 0.00 in0.0 mm 0.39 in9.9 mm
07:34 PM 43.8°F6.6°C 40.8°F4.9°C 89% Calm Calm -- 29.68 in1005.1 mb 0.00 in0.0 mm 0.00 in0.0 mm 0.39 in9.9 mm
07:39 PM 43.9°F6.6°C 40.9°F4.9°C 89% Calm Calm -- 29.68 in1005.1 mb 0.00 in0.0 mm 0.00 in0.0 mm 0.39 in9.9 mm
07:44 PM 44.0°F6.7°C 41.0°F5.0°C 89% Calm Calm -- 29.68 in1005.1 mb 0.00 in0.0 mm 0.00 in0.0 mm 0.39 in9.9 mm
07:49 PM 44.1°F6.7°C 41.1°F5.1°C 89% Calm Calm -- 29.68 in1005.1 mb 0.00 in0.0 mm 0.00 in0.0 mm 0.39 in9.9 mm
07:54 PM 44.3°F6.8°C 41.3°F5.2°C 89% Calm Calm -- 29.67 in1004.7 mb 0.00 in0.0 mm 0.00 in0.0 mm 0.39 in9.9 mm
07:59 PM 44.5°F6.9°C 41.5°F5.3°C 89% Calm Calm -- 29.67 in1004.7 mb 0.00 in0.0 mm 0.00 in0.0 mm 0.39 in9.9 mm
08:04 PM 44.8°F7.1°C 41.8°F5.4°C 89% Calm Calm -- 29.66 in1004.4 mb 0.00 in0.0 mm 0.00 in0.0 mm 0.39 in9.9 mm
08:09 PM 45.0°F7.2°C 42.0°F5.6°C 89% Calm Calm 1.0 mph1.6 kmh 29.66 in1004.4 mb 0.00 in0.0 mm 0.00 in0.0 mm 0.40 in10.2 mm
08:14 PM 45.3°F7.4°C 42.5°F5.8°C 90% Calm Calm -- 29.66 in1004.4 mb 0.00 in0.0 mm 0.00 in0.0 mm 0.40 in10.2 mm
08:19 PM 45.5°F7.5°C 42.4°F5.8°C 89% Calm Calm 1.0 mph1.6 kmh 29.65 in1004.1 mb 0.00 in0.0 mm 0.00 in0.0 mm 0.40 in10.2 mm
08:24 PM 45.8°F7.7°C 42.7°F5.9°C 89% Calm Calm 2.0 mph3.2 kmh 29.65 in1004.1 mb 0.00 in0.0 mm 0.00 in0.0 mm 0.40 in10.2 mm
08:29 PM 45.9°F7.7°C 42.8°F6.0°C 89% Calm Calm -- 29.65 in1004.1 mb 0.00 in0.0 mm 0.00 in0.0 mm 0.40 in10.2 mm
08:34 PM 46.1°F7.8°C 43.3°F6.3°C 90% Calm Calm -- 29.65 in1004.1 mb 0.00 in0.0 mm 0.00 in0.0 mm 0.40 in10.2 mm
08:39 PM 46.1°F7.8°C 43.0°F6.1°C 89% Calm Calm -- 29.65 in1004.1 mb 0.00 in0.0 mm 0.00 in0.0 mm 0.40 in10.2 mm
08:44 PM 46.1°F7.8°C 43.0°F6.1°C 89% Calm Calm -- 29.65 in1004.1 mb 0.00 in0.0 mm 0.00 in0.0 mm 0.40 in10.2 mm
08:49 PM 46.2°F7.9°C 43.1°F6.2°C 89% Calm Calm -- 29.65 in1004.1 mb 0.00 in0.0 mm 0.00 in0.0 mm 0.40 in10.2 mm
08:54 PM 46.3°F7.9°C 43.2°F6.2°C 89% Calm Calm -- 29.65 in1004.1 mb 0.00 in0.0 mm 0.00 in0.0 mm 0.40 in10.2 mm
08:59 PM 46.4°F8.0°C 43.3°F6.3°C 89% Calm Calm -- 29.65 in1004.1 mb 0.00 in0.0 mm 0.00 in0.0 mm 0.40 in10.2 mm
09:04 PM 46.5°F8.1°C 43.4°F6.3°C 89% 3.0 mph ESE4.8 kmh ESE 3.0 mph4.8 kmh 29.65 in1004.1 mb 0.00 in0.0 mm 0.00 in0.0 mm 0.40 in10.2 mm
09:09 PM 46.6°F8.1°C 43.5°F6.4°C 89% Calm Calm 4.0 mph6.4 kmh 29.64 in1003.7 mb 0.00 in0.0 mm 0.00 in0.0 mm 0.40 in10.2 mm
09:14 PM 46.7°F8.2°C 43.6°F6.4°C 89% Calm Calm 7.0 mph11.3 kmh 29.64 in1003.7 mb 0.00 in0.0 mm 0.00 in0.0 mm 0.40 in10.2 mm
09:19 PM 46.7°F8.2°C 43.6°F6.4°C 89% 2.0 mph E3.2 kmh E 3.0 mph4.8 kmh 29.64 in1003.7 mb 0.00 in0.0 mm 0.00 in0.0 mm 0.40 in10.2 mm
09:24 PM 46.8°F8.2°C 43.7°F6.5°C 89% Calm Calm -- 29.63 in1003.4 mb 0.00 in0.0 mm 0.00 in0.0 mm 0.40 in10.2 mm
09:29 PM 46.9°F8.3°C 43.8°F6.6°C 89% Calm Calm 5.0 mph8.0 kmh 29.62 in1003.0 mb 0.00 in0.0 mm 0.00 in0.0 mm 0.40 in10.2 mm
09:34 PM 47.0°F8.3°C 43.9°F6.6°C 89% Calm Calm 5.0 mph8.0 kmh 29.61 in1002.7 mb 0.00 in0.0 mm 0.00 in0.0 mm 0.40 in10.2 mm
09:39 PM 47.1°F8.4°C 44.0°F6.7°C 89% Calm Calm 7.0 mph11.3 kmh 29.61 in1002.7 mb 0.00 in0.0 mm 0.00 in0.0 mm 0.40 in10.2 mm
09:44 PM 47.1°F8.4°C 44.0°F6.7°C 89% 3.0 mph ESE4.8 kmh ESE 5.0 mph8.0 kmh 29.60 in1002.4 mb 0.00 in0.0 mm 0.00 in0.0 mm 0.40 in10.2 mm
09:49 PM 47.2°F8.4°C 44.1°F6.7°C 89% Calm Calm 5.0 mph8.0 kmh 29.62 in1003.0 mb 0.00 in0.0 mm 0.00 in0.0 mm 0.40 in10.2 mm
09:54 PM 47.3°F8.5°C 44.2°F6.8°C 89% Calm Calm -- 29.61 in1002.7 mb 0.00 in0.0 mm 0.00 in0.0 mm 0.40 in10.2 mm
09:59 PM 47.4°F8.6°C 44.3°F6.8°C 89% Calm Calm -- 29.61 in1002.7 mb 0.00 in0.0 mm 0.00 in0.0 mm 0.40 in10.2 mm
10:04 PM 47.5°F8.6°C 44.4°F6.9°C 89% 2.0 mph ESE3.2 kmh ESE 8.0 mph12.9 kmh 29.60 in1002.4 mb 0.00 in0.0 mm 0.00 in0.0 mm 0.40 in10.2 mm
10:09 PM 47.6°F8.7°C 44.5°F6.9°C 89% Calm Calm -- 29.60 in1002.4 mb 0.00 in0.0 mm 0.00 in0.0 mm 0.40 in10.2 mm
10:14 PM 47.7°F8.7°C 44.6°F7.0°C 89% Calm Calm 1.0 mph1.6 kmh 29.60 in1002.4 mb 0.00 in0.0 mm 0.00 in0.0 mm 0.40 in10.2 mm
10:19 PM 47.8°F8.8°C 44.7°F7.1°C 89% 1.0 mph ESE1.6 kmh ESE 2.0 mph3.2 kmh 29.60 in1002.4 mb 0.00 in0.0 mm 0.00 in0.0 mm 0.40 in10.2 mm
10:24 PM 47.9°F8.8°C 44.8°F7.1°C 89% Calm Calm 7.0 mph11.3 kmh 29.59 in1002.0 mb 0.00 in0.0 mm 0.00 in0.0 mm 0.40 in10.2 mm
10:29 PM 48.0°F8.9°C 44.9°F7.2°C 89% Calm Calm 4.0 mph6.4 kmh 29.60 in1002.4 mb 0.00 in0.0 mm 0.00 in0.0 mm 0.40 in10.2 mm
10:34 PM 48.1°F8.9°C 45.0°F7.2°C 89% Calm Calm 4.0 mph6.4 kmh 29.60 in1002.4 mb 0.00 in0.0 mm 0.00 in0.0 mm 0.40 in10.2 mm
10:39 PM 48.2°F9.0°C 45.1°F7.3°C 89% Calm Calm -- 29.59 in1002.0 mb 0.00 in0.0 mm 0.00 in0.0 mm 0.40 in10.2 mm
10:44 PM 48.3°F9.1°C 45.2°F7.3°C 89% Calm Calm 3.0 mph4.8 kmh 29.59 in1002.0 mb 0.00 in0.0 mm 0.00 in0.0 mm 0.40 in10.2 mm
10:49 PM 48.5°F9.2°C 45.4°F7.4°C 89% Calm Calm 1.0 mph1.6 kmh 29.59 in1002.0 mb 0.00 in0.0 mm 0.00 in0.0 mm 0.40 in10.2 mm
10:54 PM 48.7°F9.3°C 45.6°F7.6°C 89% Calm Calm -- 29.58 in1001.7 mb 0.00 in0.0 mm 0.00 in0.0 mm 0.40 in10.2 mm
10:59 PM 48.8°F9.3°C 45.7°F7.6°C 89% Calm Calm 6.0 mph9.7 kmh 29.57 in1001.4 mb 0.00 in0.0 mm 0.00 in0.0 mm 0.40 in10.2 mm
11:04 PM 48.9°F9.4°C 45.8°F7.7°C 89% 6.0 mph SE9.7 kmh SE 11.0 mph17.7 kmh 29.56 in1001.0 mb 0.00 in0.0 mm 0.00 in0.0 mm 0.40 in10.2 mm
11:09 PM 49.0°F9.4°C 45.9°F7.7°C 89% Calm Calm 11.0 mph17.7 kmh 29.57 in1001.4 mb 0.00 in0.0 mm 0.00 in0.0 mm 0.40 in10.2 mm
11:14 PM 49.0°F9.4°C 45.9°F7.7°C 89% Calm Calm 3.0 mph4.8 kmh 29.57 in1001.4 mb 0.00 in0.0 mm 0.00 in0.0 mm 0.40 in10.2 mm
11:19 PM 49.0°F9.4°C 45.9°F7.7°C 89% Calm Calm -- 29.58 in1001.7 mb 0.00 in0.0 mm 0.00 in0.0 mm 0.40 in10.2 mm
11:24 PM 49.0°F9.4°C 45.9°F7.7°C 89% Calm Calm 3.0 mph4.8 kmh 29.58 in1001.7 mb 0.00 in0.0 mm 0.00 in0.0 mm 0.40 in10.2 mm
11:29 PM 49.0°F9.4°C 45.9°F7.7°C 89% Calm Calm -- 29.57 in1001.4 mb 0.00 in0.0 mm 0.00 in0.0 mm 0.40 in10.2 mm
11:34 PM 49.0°F9.4°C 45.9°F7.7°C 89% 4.0 mph SE6.4 kmh SE 8.0 mph12.9 kmh 29.57 in1001.4 mb 0.00 in0.0 mm 0.00 in0.0 mm 0.40 in10.2 mm
11:39 PM 48.9°F9.4°C 45.8°F7.7°C 89% 5.0 mph SE8.0 kmh SE 5.0 mph8.0 kmh 29.56 in1001.0 mb 0.00 in0.0 mm 0.00 in0.0 mm 0.40 in10.2 mm
11:44 PM 48.9°F9.4°C 45.8°F7.7°C 89% Calm Calm 5.0 mph8.0 kmh 29.55 in1000.7 mb 0.00 in0.0 mm 0.00 in0.0 mm 0.40 in10.2 mm
11:49 PM 48.9°F9.4°C 45.8°F7.7°C 89% 2.0 mph SE3.2 kmh SE 8.0 mph12.9 kmh 29.55 in1000.7 mb 0.00 in0.0 mm 0.00 in0.0 mm 0.40 in10.2 mm
11:54 PM 49.0°F9.4°C 45.9°F7.7°C 89% Calm Calm -- 29.55 in1000.7 mb 0.00 in0.0 mm 0.00 in0.0 mm 0.40 in10.2 mm
11:59 PM 49.0°F9.4°C 45.9°F7.7°C 89% Calm Calm 11.0 mph17.7 kmh 29.54 in1000.3 mb 0.00 in0.0 mm 0.00 in0.0 mm 0.40 in10.2 mm